Cedar Crest, New Mexico
Current Conditions -  °F | °C
As of 4:52 AM on Monday 22 Dec 2014 (Local Time) from KABQ Reporting Station
Broken Clouds Broken Clouds  
Wind Chill: 35°   Ceiling: 21000
Heat Index: 35°   Visibility: 10mi
Dew Point: 29°   Wind: 3mph
Humidity: 78%   Direction: 120°ESE
Pressure: 29.91"   Gusts: NA
Location:  35.11°N, 106.38°W
Report Text: KABQ 221152Z 12003KT 10SM FEW065 BKN210 02/M02 A2991 RMK AO2 SLP112 T00171017 10044 20000 58003
Loading
Personal Weather Stations






























Interactive Weather Map New forecast layout! Learn more

10-Day Weather Forecast

Advertisements
Track Severe Weather on mobile